createdAt,value
2022-10-18T00:00:14.986Z,18.80
2022-10-18T00:02:41.452Z,18.80
2022-10-18T00:05:10.266Z,18.80
2022-10-18T00:07:36.757Z,18.80
2022-10-18T00:10:03.222Z,18.80
2022-10-18T00:12:29.694Z,18.80
2022-10-18T00:14:56.187Z,18.80
2022-10-18T00:17:22.651Z,18.80
2022-10-18T00:19:49.131Z,18.80
2022-10-18T00:22:15.602Z,18.80
2022-10-18T00:24:42.075Z,18.80
2022-10-18T00:27:08.551Z,18.80
2022-10-18T00:29:35.126Z,18.80
2022-10-18T00:32:01.618Z,18.80
2022-10-18T00:34:28.105Z,18.80
2022-10-18T00:36:54.589Z,18.80
2022-10-18T00:39:27.063Z,18.80
2022-10-18T00:41:53.520Z,18.80
2022-10-18T00:44:19.994Z,18.80
2022-10-18T00:46:46.496Z,18.80
2022-10-18T00:49:12.986Z,18.80
2022-10-18T00:51:39.536Z,18.80
2022-10-18T00:54:06.022Z,18.80
2022-10-18T00:56:32.507Z,18.80
2022-10-18T00:58:58.994Z,18.80
2022-10-18T01:01:28.289Z,18.80
2022-10-18T01:03:55.136Z,18.90
2022-10-18T01:06:21.621Z,18.80
2022-10-18T01:08:48.242Z,18.80
2022-10-18T01:11:14.757Z,18.80
2022-10-18T01:13:43.379Z,18.80
2022-10-18T01:16:09.892Z,18.80
2022-10-18T01:18:36.372Z,18.80
2022-10-18T01:21:03.004Z,18.80
2022-10-18T01:23:29.537Z,18.80
2022-10-18T01:25:56.008Z,18.80
2022-10-18T01:28:22.473Z,18.80
2022-10-18T01:30:48.934Z,18.80
2022-10-18T01:33:15.408Z,18.80
2022-10-18T01:35:41.873Z,18.80
2022-10-18T01:38:08.386Z,18.80
2022-10-18T01:40:34.838Z,18.80
2022-10-18T01:43:01.362Z,18.90
2022-10-18T01:45:27.881Z,18.80
2022-10-18T01:47:54.344Z,18.80
2022-10-18T01:50:20.881Z,18.80
2022-10-18T01:52:47.347Z,18.80
2022-10-18T01:55:13.806Z,18.80
2022-10-18T01:57:40.289Z,18.80
2022-10-18T02:00:06.769Z,18.80
2022-10-18T02:02:33.333Z,18.80
2022-10-18T02:04:59.957Z,18.80
2022-10-18T02:07:26.420Z,18.80
2022-10-18T02:09:52.892Z,18.50
2022-10-18T02:12:19.400Z,18.80
2022-10-18T02:14:45.864Z,18.80
2022-10-18T02:17:12.351Z,18.80
2022-10-18T02:19:41.841Z,18.80
2022-10-18T02:22:08.353Z,18.80
2022-10-18T02:24:37.845Z,18.80
2022-10-18T02:27:04.344Z,18.90
2022-10-18T02:29:30.840Z,18.80
2022-10-18T02:31:57.363Z,18.80
2022-10-18T02:34:23.845Z,18.80
2022-10-18T02:36:50.338Z,18.80
2022-10-18T02:39:16.805Z,18.80
2022-10-18T02:41:43.308Z,18.80
2022-10-18T02:44:09.777Z,18.70
2022-10-18T02:46:36.279Z,18.80
2022-10-18T02:49:04.825Z,18.80
2022-10-18T02:51:31.325Z,18.80
2022-10-18T02:53:57.799Z,18.80
2022-10-18T02:56:24.298Z,18.70
2022-10-18T02:58:50.801Z,18.80
2022-10-18T03:01:17.328Z,18.80
2022-10-18T03:03:43.808Z,18.80
2022-10-18T03:06:13.095Z,18.80
2022-10-18T03:08:39.582Z,18.80
2022-10-18T03:11:06.061Z,18.80
2022-10-18T03:13:32.552Z,18.80
2022-10-18T03:15:59.039Z,18.80
2022-10-18T03:18:25.506Z,18.80
2022-10-18T03:20:51.981Z,18.80
2022-10-18T03:23:18.460Z,18.80
2022-10-18T03:25:53.890Z,18.80
2022-10-18T03:28:20.353Z,18.70
2022-10-18T03:30:46.824Z,18.60
2022-10-18T03:33:13.298Z,18.80
2022-10-18T03:35:39.772Z,18.80
2022-10-18T03:38:06.247Z,18.70
2022-10-18T03:40:32.740Z,18.70
2022-10-18T03:42:59.257Z,18.80
2022-10-18T03:45:28.958Z,18.80
2022-10-18T03:47:57.737Z,18.80
2022-10-18T03:50:24.199Z,18.70
2022-10-18T03:52:50.676Z,18.80
2022-10-18T03:55:17.171Z,18.80
2022-10-18T03:57:43.653Z,18.80
2022-10-18T04:00:17.509Z,18.80
2022-10-18T04:02:43.990Z,18.80
2022-10-18T04:05:10.473Z,18.80
2022-10-18T04:10:03.326Z,18.80
2022-10-18T04:12:30.076Z,18.80
2022-10-18T04:14:56.764Z,18.80
2022-10-18T04:17:25.341Z,18.80
2022-10-18T04:19:51.808Z,18.80
2022-10-18T04:22:18.294Z,18.80
2022-10-18T04:24:44.764Z,18.80
2022-10-18T04:27:11.244Z,18.80
2022-10-18T04:29:37.701Z,18.70
2022-10-18T04:32:04.178Z,18.80
2022-10-18T04:34:30.713Z,18.80
2022-10-18T04:36:57.286Z,18.80
2022-10-18T04:39:23.785Z,18.80
2022-10-18T04:41:50.245Z,18.80
2022-10-18T04:44:16.734Z,18.80
2022-10-18T04:46:43.220Z,18.80
2022-10-18T04:49:09.723Z,18.80
2022-10-18T04:51:36.209Z,18.80
2022-10-18T04:54:02.695Z,18.80
2022-10-18T04:56:29.155Z,18.80
2022-10-18T04:58:55.701Z,18.80
2022-10-18T05:01:22.245Z,18.80
2022-10-18T05:03:48.811Z,18.80
2022-10-18T05:06:15.300Z,18.80
2022-10-18T05:08:41.765Z,18.80
2022-10-18T05:13:39.641Z,18.70
2022-10-18T05:16:06.104Z,18.70
2022-10-18T05:18:32.596Z,18.80
2022-10-18T05:20:59.085Z,18.80
2022-10-18T05:23:25.559Z,18.80
2022-10-18T05:25:52.065Z,18.80
2022-10-18T05:28:38.735Z,18.80
2022-10-18T05:31:05.015Z,18.80
2022-10-18T05:33:31.522Z,18.80
2022-10-18T05:35:57.997Z,18.70
2022-10-18T05:38:24.527Z,18.70
2022-10-18T05:40:51.016Z,18.70
2022-10-18T05:43:17.532Z,18.80
2022-10-18T05:45:44.015Z,18.80
2022-10-18T05:48:10.491Z,18.70
2022-10-18T05:50:39.605Z,18.80
2022-10-18T05:53:12.590Z,18.70
2022-10-18T05:55:51.099Z,18.70
2022-10-18T05:58:17.580Z,18.70
2022-10-18T06:00:44.060Z,18.80
2022-10-18T06:03:10.538Z,18.80
2022-10-18T06:05:37.013Z,18.80
2022-10-18T06:08:06.489Z,18.70
2022-10-18T06:10:35.959Z,18.80
2022-10-18T06:13:02.436Z,18.80
2022-10-18T06:15:28.921Z,18.80
2022-10-18T06:17:55.439Z,18.70
2022-10-18T06:20:21.915Z,18.70
2022-10-18T06:22:48.511Z,18.70
2022-10-18T06:25:14.990Z,18.80
2022-10-18T06:27:41.509Z,18.70
2022-10-18T06:30:07.981Z,18.70
2022-10-18T06:32:34.478Z,18.80
2022-10-18T06:35:04.012Z,18.80
2022-10-18T06:37:30.828Z,18.70
2022-10-18T06:39:57.540Z,18.80
2022-10-18T06:42:24.038Z,18.70
2022-10-18T06:44:50.510Z,18.80
2022-10-18T06:47:16.993Z,18.80
2022-10-18T06:49:43.474Z,18.80
2022-10-18T06:52:17.056Z,18.70
2022-10-18T06:54:45.321Z,18.70
2022-10-18T06:57:12.186Z,18.70
2022-10-18T06:59:41.112Z,18.80
2022-10-18T07:02:14.980Z,18.70
2022-10-18T07:04:41.460Z,18.70
2022-10-18T07:07:07.972Z,18.70
2022-10-18T07:09:34.472Z,18.70
2022-10-18T07:12:00.951Z,18.70
2022-10-18T07:14:29.174Z,18.70
2022-10-18T07:16:55.773Z,18.80
2022-10-18T07:19:22.253Z,18.70
2022-10-18T07:21:48.726Z,18.50
2022-10-18T07:24:15.200Z,18.80
2022-10-18T07:26:41.678Z,18.70
2022-10-18T07:29:08.222Z,18.80
2022-10-18T07:31:34.741Z,18.80
2022-10-18T07:34:01.310Z,18.80
2022-10-18T07:36:27.827Z,18.80
2022-10-18T07:38:54.284Z,18.80
2022-10-18T07:41:20.750Z,18.80
2022-10-18T07:43:47.299Z,18.80
2022-10-18T07:46:13.771Z,18.80
2022-10-18T07:48:40.234Z,18.70
2022-10-18T07:51:06.715Z,18.80
2022-10-18T07:53:33.187Z,18.70
2022-10-18T07:56:00.195Z,18.80
2022-10-18T07:58:27.959Z,18.80
2022-10-18T08:00:54.434Z,18.80
2022-10-18T08:03:20.927Z,18.80
2022-10-18T08:05:47.620Z,18.70
2022-10-18T08:08:14.156Z,18.70
2022-10-18T08:10:40.630Z,18.70
2022-10-18T08:13:07.126Z,18.70
2022-10-18T08:15:33.612Z,18.70
2022-10-18T08:18:00.098Z,18.70
2022-10-18T08:20:30.969Z,18.70
2022-10-18T08:23:00.113Z,18.70
2022-10-18T08:25:27.243Z,18.70
2022-10-18T08:27:53.795Z,18.80
2022-10-18T08:30:20.263Z,18.80
2022-10-18T08:32:49.492Z,18.80
2022-10-18T08:35:16.188Z,18.80
2022-10-18T08:37:42.673Z,18.70
2022-10-18T08:40:09.185Z,18.70
2022-10-18T08:42:35.664Z,18.80
2022-10-18T08:45:08.335Z,18.80
2022-10-18T08:47:44.360Z,18.80
2022-10-18T08:50:11.855Z,18.80
2022-10-18T08:52:38.340Z,18.80
2022-10-18T08:55:04.819Z,18.80
2022-10-18T08:57:31.551Z,18.80
2022-10-18T08:59:58.175Z,18.80
2022-10-18T09:02:24.709Z,18.80
2022-10-18T09:04:51.196Z,18.80
2022-10-18T09:07:19.761Z,18.80
2022-10-18T09:09:46.252Z,18.80
2022-10-18T09:12:12.732Z,18.80
2022-10-18T09:14:39.253Z,18.80
2022-10-18T09:17:05.746Z,18.80
2022-10-18T09:19:32.235Z,18.80
2022-10-18T09:21:58.713Z,18.80
2022-10-18T09:24:25.239Z,18.80
2022-10-18T09:26:54.811Z,18.80
2022-10-18T09:29:21.304Z,18.80
2022-10-18T09:31:47.776Z,18.90
2022-10-18T09:34:14.248Z,18.80
2022-10-18T09:36:40.729Z,18.80
2022-10-18T09:39:07.214Z,18.80
2022-10-18T09:41:33.677Z,18.80
2022-10-18T09:44:00.157Z,18.80
2022-10-18T09:46:26.664Z,18.80
2022-10-18T09:48:53.138Z,18.80
2022-10-18T09:51:19.607Z,18.80
2022-10-18T09:53:46.145Z,18.80
2022-10-18T09:56:12.633Z,18.80
2022-10-18T09:58:39.157Z,18.80
2022-10-18T10:01:05.673Z,18.80
2022-10-18T10:03:32.137Z,18.80
2022-10-18T10:05:58.601Z,18.80
2022-10-18T10:08:25.076Z,18.80
2022-10-18T10:10:51.551Z,18.80
2022-10-18T10:13:18.016Z,18.80
2022-10-18T10:15:44.472Z,18.80
2022-10-18T10:18:12.994Z,18.80
2022-10-18T10:20:39.481Z,18.80
2022-10-18T10:23:06.012Z,18.80
2022-10-18T10:25:32.566Z,18.80
2022-10-18T10:27:59.204Z,18.80
2022-10-18T10:30:25.718Z,18.80
2022-10-18T10:32:52.175Z,18.80
2022-10-18T10:35:35.287Z,18.80
2022-10-18T10:38:05.511Z,18.80
2022-10-18T10:40:32.035Z,19.00
2022-10-18T10:43:08.807Z,18.80
2022-10-18T10:45:39.639Z,18.80
2022-10-18T10:48:06.203Z,18.80
2022-10-18T10:52:59.095Z,18.80
2022-10-18T10:55:34.775Z,18.90
2022-10-18T10:58:02.629Z,18.90
2022-10-18T11:00:29.096Z,18.90
2022-10-18T11:03:06.034Z,18.90
2022-10-18T11:05:37.668Z,18.80
2022-10-18T11:08:04.165Z,18.80
2022-10-18T11:10:30.700Z,18.90
2022-10-18T11:12:57.170Z,18.90
2022-10-18T11:15:23.657Z,18.90
2022-10-18T11:17:50.179Z,18.80
2022-10-18T11:20:16.687Z,18.90
2022-10-18T11:22:43.162Z,18.90
2022-10-18T11:25:09.646Z,18.90
2022-10-18T11:27:36.135Z,18.90
2022-10-18T11:30:02.635Z,18.90
2022-10-18T11:32:29.338Z,18.90
2022-10-18T11:34:55.983Z,18.90
2022-10-18T11:37:28.596Z,18.90
2022-10-18T11:39:59.765Z,18.90
2022-10-18T11:42:26.230Z,18.90
2022-10-18T11:44:52.716Z,18.90
2022-10-18T11:47:19.209Z,18.90
2022-10-18T11:49:45.713Z,18.90
2022-10-18T11:52:12.194Z,18.90
2022-10-18T11:54:41.661Z,18.90
2022-10-18T11:57:14.053Z,18.90
2022-10-18T11:59:40.557Z,18.90
2022-10-18T12:02:07.045Z,18.90
2022-10-18T12:04:33.536Z,18.90
2022-10-18T12:06:59.999Z,18.90
2022-10-18T12:09:29.790Z,18.90
2022-10-18T12:11:56.259Z,18.90
2022-10-18T12:14:24.795Z,18.90
2022-10-18T12:16:55.580Z,18.90
2022-10-18T12:19:29.409Z,18.90
2022-10-18T12:21:55.877Z,18.90
2022-10-18T12:24:22.390Z,18.90
2022-10-18T12:26:48.905Z,19.00
2022-10-18T12:29:15.365Z,18.90
2022-10-18T12:31:42.974Z,18.90
2022-10-18T12:34:09.466Z,19.00
2022-10-18T12:36:35.949Z,19.00
2022-10-18T12:39:02.426Z,19.00
2022-10-18T12:41:28.917Z,19.00
2022-10-18T12:43:55.393Z,19.00
2022-10-18T12:46:21.904Z,19.00
2022-10-18T12:48:48.433Z,19.00
2022-10-18T12:51:14.897Z,19.00
2022-10-18T12:53:41.368Z,19.00
2022-10-18T12:56:07.891Z,19.00
2022-10-18T12:58:34.378Z,19.00
2022-10-18T13:01:00.861Z,19.00
2022-10-18T13:03:27.342Z,19.00
2022-10-18T13:05:55.303Z,19.00
2022-10-18T13:08:22.631Z,18.80
2022-10-18T13:10:49.112Z,19.00
2022-10-18T13:13:38.155Z,19.00
2022-10-18T13:16:02.076Z,19.00
2022-10-18T13:18:28.552Z,19.10
2022-10-18T13:20:55.070Z,19.00
2022-10-18T13:23:21.549Z,19.00
2022-10-18T13:25:48.055Z,19.00
2022-10-18T13:28:14.549Z,19.10
2022-10-18T13:30:41.050Z,19.10
2022-10-18T13:33:07.534Z,19.10
2022-10-18T13:35:34.033Z,19.10
2022-10-18T13:38:00.519Z,19.10
2022-10-18T13:40:27.012Z,19.10
2022-10-18T13:42:53.488Z,19.10
2022-10-18T13:45:19.959Z,19.10
2022-10-18T13:47:46.436Z,19.10
2022-10-18T13:50:13.001Z,19.10
2022-10-18T13:52:39.529Z,19.10
2022-10-18T13:55:06.057Z,19.10
2022-10-18T13:57:32.520Z,19.10
2022-10-18T13:59:58.987Z,19.10
2022-10-18T14:02:42.841Z,19.10
2022-10-18T14:05:24.786Z,19.10
2022-10-18T14:07:52.040Z,19.10
2022-10-18T14:10:18.539Z,19.10
2022-10-18T14:12:45.005Z,19.20
2022-10-18T14:15:11.460Z,19.10
2022-10-18T14:20:09.379Z,19.10
2022-10-18T14:22:35.968Z,19.10
2022-10-18T14:25:02.471Z,19.20
2022-10-18T14:27:28.927Z,19.10
2022-10-18T14:29:57.729Z,19.10
2022-10-18T14:32:24.211Z,19.10
2022-10-18T14:34:50.687Z,19.10
2022-10-18T14:37:17.147Z,19.10
2022-10-18T14:39:43.611Z,19.10
2022-10-18T14:42:10.087Z,19.10
2022-10-18T14:44:36.563Z,19.20
2022-10-18T14:47:03.017Z,19.00
2022-10-18T14:49:29.513Z,19.20
2022-10-18T14:51:55.992Z,19.10
2022-10-18T14:54:24.085Z,19.10
2022-10-18T14:56:52.680Z,19.10
2022-10-18T14:59:19.156Z,19.10
2022-10-18T15:04:33.390Z,19.10
2022-10-18T15:06:59.864Z,19.10
2022-10-18T15:09:26.328Z,19.10
2022-10-18T15:11:52.794Z,19.20
2022-10-18T15:14:19.269Z,19.20
2022-10-18T15:16:45.741Z,19.20
2022-10-18T15:19:12.288Z,19.20
2022-10-18T15:21:38.749Z,19.20
2022-10-18T15:24:05.221Z,19.10
2022-10-18T15:26:31.696Z,19.20
2022-10-18T15:29:00.517Z,19.10
2022-10-18T15:31:29.536Z,19.20
2022-10-18T15:33:56.006Z,19.20
2022-10-18T15:36:22.508Z,19.10
2022-10-18T15:38:50.061Z,19.20
2022-10-18T15:41:16.723Z,19.10
2022-10-18T15:43:43.199Z,19.20
2022-10-18T15:46:09.804Z,19.20
2022-10-18T15:48:38.539Z,19.20
2022-10-18T15:51:05.009Z,19.10
2022-10-18T15:53:31.482Z,19.10
2022-10-18T15:55:57.947Z,19.10
2022-10-18T15:58:24.415Z,19.10
2022-10-18T16:00:50.901Z,19.10
2022-10-18T16:03:17.434Z,19.10
2022-10-18T16:05:44.118Z,19.10
2022-10-18T16:08:10.613Z,19.20
2022-10-18T16:10:37.112Z,19.10
2022-10-18T16:13:03.611Z,19.10
2022-10-18T16:15:30.121Z,19.20
2022-10-18T16:17:56.601Z,19.10
2022-10-18T16:20:23.072Z,19.10
2022-10-18T16:22:49.555Z,19.10
2022-10-18T16:25:16.039Z,19.20
2022-10-18T16:27:42.514Z,19.00
2022-10-18T16:30:10.696Z,19.10
2022-10-18T16:32:37.306Z,19.20
2022-10-18T16:35:03.769Z,19.10
2022-10-18T16:37:30.295Z,19.10
2022-10-18T16:39:56.799Z,19.10
2022-10-18T16:42:23.294Z,19.10
2022-10-18T16:44:49.798Z,19.10
2022-10-18T16:47:16.271Z,19.10
2022-10-18T16:49:42.758Z,19.10
2022-10-18T16:52:09.223Z,19.10
2022-10-18T16:54:35.710Z,19.10
2022-10-18T16:57:02.191Z,19.10
2022-10-18T16:59:29.152Z,19.10
2022-10-18T17:01:55.759Z,19.10
2022-10-18T17:04:22.321Z,19.00
2022-10-18T17:06:48.827Z,19.00
2022-10-18T17:09:15.924Z,19.00
2022-10-18T17:11:42.396Z,19.00
2022-10-18T17:14:08.879Z,19.00
2022-10-18T17:16:35.380Z,19.00
2022-10-18T17:19:01.876Z,19.00
2022-10-18T17:21:28.465Z,19.00
2022-10-18T17:23:54.944Z,19.00
2022-10-18T17:26:29.911Z,19.00
2022-10-18T17:28:56.913Z,19.00
2022-10-18T17:31:23.448Z,19.00
2022-10-18T17:33:52.779Z,19.00
2022-10-18T17:36:19.254Z,19.00
2022-10-18T17:38:45.729Z,18.90
2022-10-18T17:41:12.193Z,19.00
2022-10-18T17:46:10.065Z,18.90
2022-10-18T17:48:36.538Z,18.90
2022-10-18T17:51:03.159Z,18.90
2022-10-18T17:53:29.649Z,18.90
2022-10-18T17:55:58.976Z,18.90
2022-10-18T17:58:27.791Z,18.90
2022-10-18T18:00:54.279Z,18.90
2022-10-18T18:03:20.781Z,18.90
2022-10-18T18:05:47.259Z,19.00
2022-10-18T18:08:13.870Z,18.90
2022-10-18T18:10:40.373Z,18.90
2022-10-18T18:13:06.860Z,18.90
2022-10-18T18:15:33.352Z,18.90
2022-10-18T18:17:59.975Z,18.90
2022-10-18T18:20:26.476Z,18.90
2022-10-18T18:22:52.952Z,18.90
2022-10-18T18:25:19.451Z,18.90
2022-10-18T18:27:45.950Z,18.90
2022-10-18T18:30:12.469Z,18.90
2022-10-18T18:32:38.938Z,18.90
2022-10-18T18:35:05.391Z,18.90
2022-10-18T18:37:32.099Z,18.90
2022-10-18T18:39:58.584Z,18.80
2022-10-18T18:42:25.059Z,18.90
2022-10-18T18:44:54.377Z,18.90
2022-10-18T18:47:20.861Z,18.90
2022-10-18T18:49:47.348Z,18.90
2022-10-18T18:52:13.845Z,18.90
2022-10-18T18:54:40.319Z,18.90
2022-10-18T18:57:06.775Z,18.90
2022-10-18T18:59:33.246Z,18.90
2022-10-18T19:01:59.738Z,18.90
2022-10-18T19:04:26.209Z,18.90
2022-10-18T19:06:52.714Z,18.90
2022-10-18T19:09:19.200Z,18.90
2022-10-18T19:11:45.674Z,18.80
2022-10-18T19:14:12.187Z,18.80
2022-10-18T19:16:38.720Z,18.90
2022-10-18T19:19:05.180Z,18.80
2022-10-18T19:21:31.692Z,18.80
2022-10-18T19:23:58.175Z,18.80
2022-10-18T19:26:24.651Z,18.80
2022-10-18T19:28:51.319Z,18.70
2022-10-18T19:31:17.858Z,18.80
2022-10-18T19:33:48.816Z,18.80
2022-10-18T19:36:25.171Z,18.80
2022-10-18T19:38:51.650Z,18.70
2022-10-18T19:41:18.126Z,18.80
2022-10-18T19:43:44.603Z,18.80
2022-10-18T19:46:11.137Z,18.70
2022-10-18T19:48:37.603Z,18.70
2022-10-18T19:51:04.135Z,18.70
2022-10-18T19:53:30.617Z,18.70
2022-10-18T19:55:59.193Z,18.80
2022-10-18T19:58:25.669Z,18.80
2022-10-18T20:00:52.168Z,18.80
2022-10-18T20:03:18.637Z,18.70
2022-10-18T20:05:45.122Z,18.70
2022-10-18T20:08:11.603Z,18.70
2022-10-18T20:10:38.089Z,18.70
2022-10-18T20:13:04.576Z,18.70
2022-10-18T20:15:31.063Z,18.70
2022-10-18T20:17:57.528Z,18.80
2022-10-18T20:20:23.989Z,18.80
2022-10-18T20:22:50.455Z,18.70
2022-10-18T20:25:16.949Z,18.70
2022-10-18T20:27:43.448Z,18.70
2022-10-18T20:30:11.391Z,18.70
2022-10-18T20:32:40.194Z,18.70
2022-10-18T20:35:06.693Z,18.70
2022-10-18T20:37:33.294Z,18.80
2022-10-18T20:39:59.889Z,18.70
2022-10-18T20:42:26.392Z,18.70
2022-10-18T20:44:52.959Z,18.60
2022-10-18T20:47:19.493Z,18.70
2022-10-18T20:49:45.967Z,18.70
2022-10-18T20:52:12.436Z,18.70
2022-10-18T20:54:38.914Z,18.70
2022-10-18T20:57:05.378Z,18.70
2022-10-18T20:59:31.868Z,18.50
2022-10-18T21:01:58.331Z,18.70
2022-10-18T21:04:24.791Z,18.70
2022-10-18T21:06:51.255Z,18.70
2022-10-18T21:09:19.782Z,18.70
2022-10-18T21:11:47.268Z,18.70
2022-10-18T21:14:13.749Z,18.70
2022-10-18T21:16:40.216Z,18.70
2022-10-18T21:19:06.691Z,18.60
2022-10-18T21:21:33.154Z,18.70
2022-10-18T21:24:02.521Z,18.40
2022-10-18T21:26:31.974Z,18.70
2022-10-18T21:29:01.671Z,18.60
2022-10-18T21:31:28.152Z,18.60
2022-10-18T21:33:54.636Z,18.60
2022-10-18T21:36:21.108Z,18.60
2022-10-18T21:38:47.592Z,18.60
2022-10-18T21:41:14.075Z,18.60
2022-10-18T21:43:40.548Z,18.60
2022-10-18T21:46:07.031Z,18.60
2022-10-18T21:48:33.495Z,18.60
2022-10-18T21:50:59.977Z,18.60
2022-10-18T21:53:26.459Z,18.70
2022-10-18T21:55:52.963Z,18.60
2022-10-18T21:58:19.450Z,18.60
2022-10-18T22:00:45.996Z,18.60
2022-10-18T22:03:12.495Z,18.60
2022-10-18T22:05:38.987Z,18.60
2022-10-18T22:08:05.481Z,18.60
2022-10-18T22:10:31.964Z,18.60
2022-10-18T22:12:58.442Z,18.60
2022-10-18T22:15:25.003Z,18.60
2022-10-18T22:17:51.494Z,18.60
2022-10-18T22:20:18.008Z,18.60
2022-10-18T22:22:45.328Z,18.60
2022-10-18T22:25:11.798Z,18.60
2022-10-18T22:27:38.272Z,18.60
2022-10-18T22:30:04.748Z,18.60
2022-10-18T22:32:31.222Z,18.60
2022-10-18T22:34:57.683Z,18.60
2022-10-18T22:37:24.293Z,18.60
2022-10-18T22:39:50.781Z,18.60
2022-10-18T22:42:17.255Z,18.60
2022-10-18T22:44:43.713Z,18.60
2022-10-18T22:47:10.163Z,18.60
2022-10-18T22:49:36.648Z,18.60
2022-10-18T22:52:03.137Z,18.60
2022-10-18T22:54:29.606Z,18.60
2022-10-18T22:56:56.067Z,18.60
2022-10-18T22:59:22.538Z,18.60
2022-10-18T23:01:49.087Z,18.60
2022-10-18T23:04:15.584Z,18.60
2022-10-18T23:06:42.062Z,18.60
2022-10-18T23:09:08.547Z,18.50
2022-10-18T23:11:35.016Z,18.50
2022-10-18T23:14:02.355Z,18.50
2022-10-18T23:16:28.845Z,18.60
2022-10-18T23:18:55.317Z,18.60
2022-10-18T23:21:21.782Z,18.60
2022-10-18T23:23:48.323Z,18.50
2022-10-18T23:26:14.981Z,18.50
2022-10-18T23:28:41.479Z,18.50
2022-10-18T23:31:10.033Z,18.40
2022-10-18T23:33:36.515Z,18.40
2022-10-18T23:36:02.990Z,18.40
2022-10-18T23:38:29.463Z,18.40
2022-10-18T23:40:56.003Z,18.40
2022-10-18T23:43:22.486Z,18.40
2022-10-18T23:45:48.978Z,18.40
2022-10-18T23:48:15.460Z,18.40
2022-10-18T23:50:41.950Z,18.40
2022-10-18T23:53:08.453Z,18.30
2022-10-18T23:55:34.931Z,18.40
2022-10-18T23:58:01.438Z,18.30
